createdAt,value
2018-03-01T00:00:21.715Z,61.00
2018-03-01T00:02:48.351Z,61.69
2018-03-01T00:05:15.679Z,61.16
2018-03-01T00:07:42.557Z,61.18
2018-03-01T00:10:09.345Z,60.44
2018-03-01T00:12:36.166Z,60.49
2018-03-01T00:15:03.548Z,60.67
2018-03-01T00:17:30.109Z,61.04
2018-03-01T00:19:57.598Z,61.06
2018-03-01T00:22:35.437Z,60.67
2018-03-01T00:25:02.185Z,60.26
2018-03-01T00:27:28.879Z,61.02
2018-03-01T00:29:56.443Z,61.01
2018-03-01T00:32:23.174Z,60.98
2018-03-01T00:34:49.819Z,61.36
2018-03-01T00:37:16.417Z,60.43
2018-03-01T00:39:43.726Z,61.15
2018-03-01T00:42:10.287Z,60.57
2018-03-01T00:44:36.851Z,61.03
2018-03-01T00:47:03.516Z,60.44
2018-03-01T00:49:36.690Z,60.81
2018-03-01T00:52:03.426Z,60.87
2018-03-01T00:54:30.088Z,61.15
2018-03-01T00:56:56.801Z,60.45
2018-03-01T00:59:24.233Z,60.69
2018-03-01T01:01:50.880Z,60.51
2018-03-01T01:04:17.545Z,60.59
2018-03-01T01:06:44.225Z,61.36
2018-03-01T01:09:10.947Z,60.85
2018-03-01T01:11:37.581Z,61.42
2018-03-01T01:14:04.266Z,60.58
2018-03-01T01:16:31.666Z,60.36
2018-03-01T01:18:58.257Z,59.88
2018-03-01T01:21:24.915Z,59.85
2018-03-01T01:23:52.343Z,60.67
2018-03-01T01:26:19.011Z,60.41
2018-03-01T01:28:45.666Z,60.62
2018-03-01T01:31:12.469Z,60.78
2018-03-01T01:33:39.868Z,60.64
2018-03-01T01:36:06.450Z,60.23
2018-03-01T01:38:33.071Z,60.59
2018-03-01T01:40:59.703Z,60.79
2018-03-01T01:43:26.267Z,60.74
2018-03-01T01:45:52.897Z,60.63
2018-03-01T01:48:19.510Z,60.30
2018-03-01T01:50:58.253Z,60.17
2018-03-01T01:53:24.842Z,61.07
2018-03-01T01:55:51.533Z,60.69
2018-03-01T01:58:18.126Z,61.08
2018-03-01T02:00:44.724Z,61.50
2018-03-01T02:03:12.251Z,60.58
2018-03-01T02:05:39.115Z,60.74
2018-03-01T02:08:05.736Z,60.38
2018-03-01T02:10:33.111Z,60.25
2018-03-01T02:13:00.501Z,60.20
2018-03-01T02:15:27.176Z,60.40
2018-03-01T02:17:53.720Z,60.17
2018-03-01T02:20:20.300Z,60.71
2018-03-01T02:22:46.867Z,60.68
2018-03-01T02:25:14.185Z,60.65
2018-03-01T02:27:41.047Z,61.00
2018-03-01T02:30:07.727Z,60.72
2018-03-01T02:32:34.439Z,60.74
2018-03-01T02:35:01.109Z,60.50
2018-03-01T02:37:27.657Z,60.16
2018-03-01T02:39:54.243Z,60.30
2018-03-01T02:42:22.476Z,61.00
2018-03-01T02:44:49.237Z,60.41
2018-03-01T02:47:15.846Z,60.43
2018-03-01T02:49:43.287Z,60.61
2018-03-01T02:52:10.709Z,60.66
2018-03-01T02:54:37.425Z,60.26
2018-03-01T02:57:04.005Z,60.45
2018-03-01T02:59:30.558Z,60.38
2018-03-01T03:01:57.119Z,59.73
2018-03-01T03:04:23.876Z,60.01
2018-03-01T03:06:50.587Z,59.82
2018-03-01T03:09:17.165Z,59.85
2018-03-01T03:11:43.754Z,59.60
2018-03-01T03:14:10.384Z,60.22
2018-03-01T03:16:37.445Z,60.19
2018-03-01T03:19:04.135Z,60.07
2018-03-01T03:21:31.417Z,60.49
2018-03-01T03:23:57.968Z,59.56
2018-03-01T03:26:24.536Z,60.52
2018-03-01T03:28:51.676Z,60.14
2018-03-01T03:31:18.821Z,60.92
2018-03-01T03:33:45.384Z,60.77
2018-03-01T03:36:12.662Z,60.00
2018-03-01T03:38:39.250Z,60.90
2018-03-01T03:41:06.871Z,61.27
2018-03-01T03:43:33.461Z,61.58
2018-03-01T03:46:00.189Z,61.56
2018-03-01T03:48:26.733Z,61.45
2018-03-01T03:50:53.296Z,61.90
2018-03-01T03:53:19.899Z,61.81
2018-03-01T03:55:47.206Z,61.99
2018-03-01T03:58:13.762Z,61.57
2018-03-01T04:00:40.394Z,61.97
2018-03-01T04:03:06.973Z,61.54
2018-03-01T04:05:33.519Z,62.11
2018-03-01T04:08:00.056Z,61.51
2018-03-01T04:10:27.324Z,62.30
2018-03-01T04:12:53.912Z,62.25
2018-03-01T04:15:20.499Z,62.22
2018-03-01T04:17:47.045Z,62.39
2018-03-01T04:20:13.610Z,62.62
2018-03-01T04:22:40.224Z,61.95
2018-03-01T04:25:07.546Z,62.51
2018-03-01T04:27:34.097Z,61.48
2018-03-01T04:30:00.674Z,62.37
2018-03-01T04:32:27.247Z,62.02
2018-03-01T04:34:53.777Z,62.61
2018-03-01T04:37:21.281Z,61.71
2018-03-01T04:39:47.839Z,62.03
2018-03-01T04:42:14.444Z,62.35
2018-03-01T04:44:41.027Z,61.97
2018-03-01T04:47:08.471Z,61.96
2018-03-01T04:49:35.812Z,62.53
2018-03-01T04:52:02.348Z,62.34
2018-03-01T04:54:28.886Z,62.12
2018-03-01T04:56:55.433Z,61.76
2018-03-01T04:59:23.127Z,61.61
2018-03-01T05:01:49.681Z,61.91
2018-03-01T05:04:16.220Z,61.87
2018-03-01T05:06:42.789Z,61.85
2018-03-01T05:09:09.346Z,61.76
2018-03-01T05:11:35.896Z,60.75
2018-03-01T05:14:03.336Z,61.08
2018-03-01T05:16:29.953Z,60.93
2018-03-01T05:18:56.552Z,61.47
2018-03-01T05:21:23.234Z,61.37
2018-03-01T05:23:50.056Z,60.77
2018-03-01T05:26:17.488Z,60.68
2018-03-01T05:28:44.171Z,60.62
2018-03-01T05:31:11.523Z,60.53
2018-03-01T05:33:38.072Z,60.70
2018-03-01T05:36:04.633Z,60.67
2018-03-01T05:38:31.411Z,60.51
2018-03-01T05:40:58.728Z,60.45
2018-03-01T05:43:25.502Z,60.66
2018-03-01T05:45:52.082Z,60.50
2018-03-01T05:48:19.377Z,60.30
2018-03-01T05:50:45.987Z,60.18
2018-03-01T05:53:12.538Z,60.49
2018-03-01T05:55:39.883Z,60.38
2018-03-01T05:58:06.677Z,60.51
2018-03-01T06:00:33.244Z,60.99
2018-03-01T06:02:59.921Z,60.50
2018-03-01T06:05:26.570Z,60.39
2018-03-01T06:07:53.133Z,59.96
2018-03-01T06:10:20.023Z,60.49
2018-03-01T06:12:46.595Z,59.98
2018-03-01T06:15:13.172Z,60.23
2018-03-01T06:17:39.724Z,59.64
2018-03-01T06:20:06.322Z,59.96
2018-03-01T06:22:33.405Z,59.96
2018-03-01T06:24:59.984Z,60.30
2018-03-01T06:27:26.812Z,60.16
2018-03-01T06:29:53.388Z,60.65
2018-03-01T06:32:19.994Z,60.23
2018-03-01T06:34:46.898Z,60.30
2018-03-01T06:37:13.628Z,59.73
2018-03-01T06:39:40.207Z,60.11
2018-03-01T06:42:06.758Z,59.63
2018-03-01T06:44:34.289Z,59.76
2018-03-01T06:47:00.941Z,60.12
2018-03-01T06:49:27.759Z,60.11
2018-03-01T06:51:54.546Z,60.52
2018-03-01T06:54:21.204Z,60.13
2018-03-01T06:56:47.864Z,60.03
2018-03-01T06:59:14.593Z,59.75
2018-03-01T07:01:41.225Z,59.84
2018-03-01T07:04:08.579Z,60.11
2018-03-01T07:06:36.317Z,60.02
2018-03-01T07:09:03.030Z,60.27
2018-03-01T07:11:29.907Z,59.54
2018-03-01T07:13:56.536Z,59.58
2018-03-01T07:16:28.077Z,60.05
2018-03-01T07:18:57.514Z,58.94
2018-03-01T07:21:24.237Z,59.58
2018-03-01T07:23:52.500Z,59.92
2018-03-01T07:26:19.067Z,58.92
2018-03-01T07:28:45.634Z,59.30
2018-03-01T07:31:12.957Z,59.37
2018-03-01T07:33:39.532Z,59.23
2018-03-01T07:36:09.729Z,58.83
2018-03-01T07:38:37.324Z,59.31
2018-03-01T07:41:03.927Z,59.08
2018-03-01T07:43:30.497Z,59.09
2018-03-01T07:45:57.047Z,58.91
2018-03-01T07:48:24.345Z,58.92
2018-03-01T07:50:50.941Z,58.78
2018-03-01T07:53:17.481Z,59.16
2018-03-01T07:55:44.060Z,58.73
2018-03-01T07:58:10.599Z,58.56
2018-03-01T08:00:37.123Z,58.13
2018-03-01T08:03:04.425Z,57.91
2018-03-01T08:05:30.992Z,57.69
2018-03-01T08:07:57.531Z,57.41
2018-03-01T08:10:25.161Z,56.94
2018-03-01T08:12:51.996Z,56.87
2018-03-01T08:15:18.565Z,56.76
2018-03-01T08:17:45.878Z,56.17
2018-03-01T08:20:12.805Z,56.15
2018-03-01T08:22:39.420Z,55.90
2018-03-01T08:25:06.026Z,55.77
2018-03-01T08:27:32.588Z,55.78
2018-03-01T08:29:59.133Z,56.03
2018-03-01T08:32:25.725Z,55.66
2018-03-01T08:34:53.015Z,55.31
2018-03-01T08:37:19.564Z,54.99
2018-03-01T08:39:46.153Z,54.68
2018-03-01T08:42:12.702Z,54.90
2018-03-01T08:44:39.273Z,54.29
2018-03-01T08:47:06.564Z,53.85
2018-03-01T08:49:33.143Z,53.94
2018-03-01T08:51:59.768Z,53.79
2018-03-01T08:54:26.391Z,53.34
2018-03-01T08:56:52.976Z,53.04
2018-03-01T08:59:19.521Z,52.58
2018-03-01T09:01:46.105Z,52.45
2018-03-01T09:04:12.769Z,52.07
2018-03-01T09:06:39.383Z,51.80
2018-03-01T09:09:05.954Z,51.63
2018-03-01T09:11:32.527Z,51.66
2018-03-01T09:13:59.130Z,51.64
2018-03-01T09:16:25.742Z,51.71
2018-03-01T09:18:52.822Z,51.49
2018-03-01T09:21:19.544Z,51.34
2018-03-01T09:23:46.097Z,50.85
2018-03-01T09:26:12.695Z,51.37
2018-03-01T09:28:39.242Z,50.53
2018-03-01T09:31:05.838Z,49.89
2018-03-01T09:33:36.197Z,49.93
2018-03-01T09:36:03.565Z,49.42
2018-03-01T09:38:31.739Z,49.11
2018-03-01T09:40:59.333Z,49.39
2018-03-01T09:43:26.643Z,48.86
2018-03-01T09:45:53.282Z,48.51
2018-03-01T09:48:19.959Z,48.07
2018-03-01T09:50:46.483Z,47.89
2018-03-01T09:53:13.019Z,47.57
2018-03-01T09:55:39.601Z,47.50
2018-03-01T09:58:06.243Z,47.33
2018-03-01T10:00:33.248Z,47.06
2018-03-01T10:03:00.611Z,46.82
2018-03-01T10:05:27.291Z,46.86
2018-03-01T10:07:53.907Z,46.66
2018-03-01T10:10:20.622Z,46.01
2018-03-01T10:12:47.315Z,46.53
2018-03-01T10:15:13.964Z,46.07
2018-03-01T10:17:40.510Z,46.40
2018-03-01T10:20:07.065Z,45.73
2018-03-01T10:22:34.487Z,45.73
2018-03-01T10:25:01.063Z,45.51
2018-03-01T10:27:27.640Z,45.27
2018-03-01T10:29:54.284Z,45.32
2018-03-01T10:32:21.662Z,44.82
2018-03-01T10:34:48.996Z,44.91
2018-03-01T10:37:15.585Z,44.79
2018-03-01T10:39:42.156Z,44.38
2018-03-01T10:42:08.782Z,44.51
2018-03-01T10:44:36.152Z,43.70
2018-03-01T10:47:02.716Z,44.03
2018-03-01T10:49:29.284Z,43.39
2018-03-01T10:51:55.894Z,43.43
2018-03-01T10:54:23.181Z,42.95
2018-03-01T10:56:49.745Z,43.80
2018-03-01T10:59:16.336Z,42.00
2018-03-01T11:04:51.765Z,42.53
2018-03-01T11:07:34.518Z,42.36
2018-03-01T11:10:01.661Z,41.99
2018-03-01T11:12:28.279Z,41.79
2018-03-01T11:14:55.927Z,42.02
2018-03-01T11:17:22.520Z,41.29
2018-03-01T11:19:49.436Z,41.23
2018-03-01T11:22:21.120Z,41.29
2018-03-01T11:24:49.270Z,41.26
2018-03-01T11:27:15.937Z,41.00
2018-03-01T11:29:49.597Z,41.67
2018-03-01T11:32:16.164Z,41.18
2018-03-01T11:34:42.829Z,40.76
2018-03-01T11:37:09.377Z,40.81
2018-03-01T11:39:36.831Z,40.15
2018-03-01T11:42:04.379Z,40.23
2018-03-01T11:44:31.143Z,39.79
2018-03-01T11:46:57.780Z,40.22
2018-03-01T11:49:24.380Z,40.25
2018-03-01T11:51:51.000Z,39.95
2018-03-01T11:54:17.654Z,39.76
2018-03-01T11:56:44.317Z,39.90
2018-03-01T11:59:10.971Z,39.13
2018-03-01T12:01:37.567Z,39.56
2018-03-01T12:04:04.941Z,39.65
2018-03-01T12:06:32.243Z,39.87
2018-03-01T12:08:58.801Z,39.02
2018-03-01T12:11:25.447Z,38.70
2018-03-01T12:13:52.110Z,39.01
2018-03-01T12:16:18.756Z,38.64
2018-03-01T12:18:45.429Z,38.57
2018-03-01T12:21:12.146Z,38.59
2018-03-01T12:23:38.823Z,38.01
2018-03-01T12:26:05.422Z,37.84
2018-03-01T12:28:33.836Z,37.66
2018-03-01T12:31:03.433Z,37.64
2018-03-01T12:33:31.167Z,37.97
2018-03-01T12:35:58.502Z,37.53
2018-03-01T12:38:25.986Z,37.89
2018-03-01T12:40:53.152Z,37.73
2018-03-01T12:43:19.881Z,38.04
2018-03-01T12:45:46.545Z,37.80
2018-03-01T12:48:14.062Z,37.97
2018-03-01T12:50:41.312Z,37.42
2018-03-01T12:53:08.026Z,37.69
2018-03-01T12:55:34.671Z,38.09
2018-03-01T12:58:01.337Z,37.64
2018-03-01T13:00:29.664Z,37.68
2018-03-01T13:02:58.366Z,37.87
2018-03-01T13:05:25.787Z,37.80
2018-03-01T13:07:52.436Z,37.46
2018-03-01T13:10:19.440Z,37.02
2018-03-01T13:12:46.122Z,36.64
2018-03-01T13:15:12.838Z,37.03
2018-03-01T13:17:39.532Z,36.97
2018-03-01T13:20:06.260Z,36.87
2018-03-01T13:22:33.827Z,37.10
2018-03-01T13:25:20.260Z,37.04
2018-03-01T13:27:46.981Z,36.89
2018-03-01T13:36:25.851Z,37.17
2018-03-01T13:38:52.582Z,37.39
2018-03-01T13:41:21.180Z,36.95
2018-03-01T13:43:48.442Z,37.00
2018-03-01T13:46:17.036Z,37.40
2018-03-01T13:48:43.811Z,37.44
2018-03-01T13:51:10.644Z,37.70
2018-03-01T13:53:38.751Z,37.18
2018-03-01T13:56:05.422Z,37.28
2018-03-01T13:58:32.578Z,37.12
2018-03-01T14:00:59.589Z,37.03
2018-03-01T14:03:26.650Z,36.81
2018-03-01T14:05:54.510Z,36.40
2018-03-01T14:08:23.987Z,36.78
2018-03-01T14:10:50.674Z,36.51
2018-03-01T14:13:27.701Z,36.70
2018-03-01T14:16:08.550Z,36.75
2018-03-01T14:18:41.725Z,36.91
2018-03-01T14:21:14.395Z,36.96
2018-03-01T14:23:47.736Z,36.89
2018-03-01T14:26:18.428Z,36.75
2018-03-01T14:28:47.127Z,37.23
2018-03-01T14:31:14.151Z,36.82
2018-03-01T14:33:40.733Z,37.34
2018-03-01T14:36:07.358Z,37.14
2018-03-01T14:38:45.905Z,37.21
2018-03-01T14:41:27.903Z,36.95
2018-03-01T14:43:54.550Z,37.20
2018-03-01T14:46:31.562Z,36.71
2018-03-01T14:48:59.223Z,36.59
2018-03-01T14:51:25.865Z,36.70
2018-03-01T14:53:58.491Z,37.04
2018-03-01T14:56:25.672Z,36.98
2018-03-01T14:58:52.687Z,36.41
2018-03-01T15:01:31.548Z,36.92
2018-03-01T15:03:59.054Z,37.00
2018-03-01T15:09:25.802Z,36.78
2018-03-01T15:11:53.100Z,36.62
2018-03-01T15:14:20.474Z,36.79
2018-03-01T15:19:42.952Z,37.33
2018-03-01T15:22:09.831Z,37.04
2018-03-01T15:27:31.112Z,37.92
2018-03-01T15:33:14.591Z,37.40
2018-03-01T15:38:51.899Z,37.73
2018-03-01T15:41:18.630Z,38.02
2018-03-01T15:43:45.277Z,37.26
2018-03-01T15:46:11.952Z,37.43
2018-03-01T15:48:38.720Z,37.75
2018-03-01T15:54:17.698Z,37.83
2018-03-01T15:56:45.408Z,37.42
2018-03-01T15:59:12.767Z,37.87
2018-03-01T16:02:06.527Z,37.12
2018-03-01T16:07:53.232Z,37.82
2018-03-01T16:10:23.101Z,38.36
2018-03-01T16:12:51.402Z,37.96
2018-03-01T16:15:19.735Z,38.04
2018-03-01T16:17:54.116Z,38.77
2018-03-01T16:20:27.293Z,38.56
2018-03-01T16:29:15.503Z,38.39
2018-03-01T16:32:10.537Z,38.45
2018-03-01T16:40:51.197Z,39.05
2018-03-01T16:43:18.529Z,39.77
2018-03-01T16:48:55.815Z,40.12
2018-03-01T16:54:35.283Z,40.44
2018-03-01T16:57:03.986Z,40.34
2018-03-01T16:59:30.615Z,40.15
2018-03-01T17:01:57.239Z,40.74
2018-03-01T17:04:24.603Z,40.86
2018-03-01T17:06:51.288Z,41.17
2018-03-01T17:09:17.928Z,40.79
2018-03-01T17:11:44.522Z,41.53
2018-03-01T17:14:16.515Z,40.96
2018-03-01T17:16:43.359Z,41.54
2018-03-01T17:22:05.287Z,41.45
2018-03-01T17:24:32.126Z,41.26
2018-03-01T17:26:58.836Z,41.65
2018-03-01T17:29:25.491Z,41.75
2018-03-01T17:32:03.064Z,42.06
2018-03-01T17:34:29.754Z,41.65
2018-03-01T17:36:56.492Z,41.85
2018-03-01T17:39:23.147Z,41.77
2018-03-01T17:41:49.873Z,41.48
2018-03-01T17:44:21.139Z,41.83
2018-03-01T17:46:48.015Z,42.07
2018-03-01T17:49:14.654Z,42.27
2018-03-01T17:51:41.309Z,42.27
2018-03-01T17:59:44.348Z,42.27
2018-03-01T18:04:54.429Z,42.61
2018-03-01T18:07:38.086Z,42.51
2018-03-01T18:12:37.931Z,42.88
2018-03-01T18:15:04.577Z,43.27
2018-03-01T18:17:31.334Z,43.18
2018-03-01T18:19:58.245Z,43.52
2018-03-01T18:22:25.521Z,43.19
2018-03-01T18:24:52.368Z,43.04
2018-03-01T18:27:21.127Z,43.29
2018-03-01T18:29:47.946Z,43.51
2018-03-01T18:32:16.516Z,43.16
2018-03-01T18:34:43.153Z,43.08
2018-03-01T18:37:17.427Z,43.07
2018-03-01T18:40:02.966Z,43.10
2018-03-01T18:45:19.378Z,43.59
2018-03-01T18:47:48.721Z,44.07
2018-03-01T18:52:53.821Z,44.12
2018-03-01T18:55:21.381Z,44.36
2018-03-01T19:00:29.487Z,44.50
2018-03-01T19:02:56.650Z,44.71
2018-03-01T19:05:25.397Z,44.90
2018-03-01T19:07:54.908Z,45.39
2018-03-01T19:10:23.477Z,44.89
2018-03-01T19:15:57.009Z,45.29
2018-03-01T19:18:26.095Z,45.54
2018-03-01T19:21:00.259Z,44.88
2018-03-01T19:23:29.075Z,45.50
2018-03-01T19:25:56.250Z,45.81
2018-03-01T19:28:23.260Z,46.11
2018-03-01T19:30:50.242Z,45.67
2018-03-01T19:33:17.318Z,45.97
2018-03-01T19:35:44.147Z,46.34
2018-03-01T19:44:08.231Z,46.27
2018-03-01T19:46:35.521Z,46.97
2018-03-01T19:55:13.260Z,46.78
2018-03-01T20:04:00.747Z,47.45
2018-03-01T20:10:07.372Z,47.57
2018-03-01T20:12:36.178Z,47.62
2018-03-01T20:15:03.306Z,47.72
2018-03-01T20:20:40.809Z,47.98
2018-03-01T20:41:01.471Z,47.98
2018-03-01T20:49:28.161Z,48.27
2018-03-01T20:54:46.599Z,48.80
2018-03-01T21:00:23.244Z,48.85
2018-03-01T21:06:09.673Z,49.05
2018-03-01T21:14:56.103Z,49.10
2018-03-01T21:17:46.129Z,49.57
2018-03-01T21:20:34.028Z,49.41
2018-03-01T21:23:01.597Z,49.53
2018-03-01T21:25:29.776Z,49.42
2018-03-01T21:41:03.852Z,49.94
2018-03-01T21:43:30.864Z,50.18
2018-03-01T21:45:57.646Z,50.44
2018-03-01T21:48:24.688Z,50.21
2018-03-01T21:54:11.083Z,50.00
2018-03-01T22:05:33.469Z,51.03
2018-03-01T22:14:29.889Z,51.46
2018-03-01T22:16:58.045Z,51.48
2018-03-01T22:19:48.343Z,50.87
2018-03-01T22:22:15.084Z,51.53
2018-03-01T22:24:41.729Z,51.46
2018-03-01T22:27:35.577Z,51.42
2018-03-01T22:30:17.628Z,51.68
2018-03-01T22:32:45.130Z,51.88
2018-03-01T22:35:12.002Z,52.07
2018-03-01T22:37:46.690Z,51.50
2018-03-01T22:40:13.329Z,51.65
2018-03-01T22:42:40.259Z,52.28
2018-03-01T22:48:31.414Z,52.63
2018-03-01T22:51:12.394Z,53.04
2018-03-01T22:53:39.092Z,53.04
2018-03-01T22:56:05.689Z,52.60
2018-03-01T22:58:32.619Z,52.77
2018-03-01T23:00:59.320Z,53.12
2018-03-01T23:03:25.968Z,52.66
2018-03-01T23:05:52.605Z,53.16
2018-03-01T23:08:19.276Z,53.45
2018-03-01T23:10:45.881Z,53.05
2018-03-01T23:13:35.206Z,53.28
2018-03-01T23:30:27.977Z,53.83
2018-03-01T23:33:00.995Z,53.57
2018-03-01T23:35:28.550Z,53.20
2018-03-01T23:37:55.184Z,53.76
2018-03-01T23:40:21.905Z,54.00
2018-03-01T23:42:48.581Z,54.00
2018-03-01T23:45:22.833Z,53.79
2018-03-01T23:47:50.159Z,53.89
2018-03-01T23:50:17.368Z,53.57
2018-03-01T23:52:44.053Z,54.13
2018-03-01T23:55:11.374Z,54.42
2018-03-01T23:57:41.216Z,54.03
